sensor_id;sensor_type;location;lat;lon;timestamp;temperature;humidity
4505;DHT22;2265;48.794;9.520;2023-05-07T00:00:27;14.50;98.00
4505;DHT22;2265;48.794;9.520;2023-05-07T00:02:56;14.40;98.00
4505;DHT22;2265;48.794;9.520;2023-05-07T00:05:23;14.40;98.00
4505;DHT22;2265;48.794;9.520;2023-05-07T00:07:51;14.40;98.00
4505;DHT22;2265;48.794;9.520;2023-05-07T00:10:19;14.30;98.00
4505;DHT22;2265;48.794;9.520;2023-05-07T00:12:47;14.20;98.00
4505;DHT22;2265;48.794;9.520;2023-05-07T00:15:14;14.20;98.00
4505;DHT22;2265;48.794;9.520;2023-05-07T00:17:41;14.10;98.00
4505;DHT22;2265;48.794;9.520;2023-05-07T00:20:10;14.10;98.00
4505;DHT22;2265;48.794;9.520;2023-05-07T00:22:37;14.10;98.00
4505;DHT22;2265;48.794;9.520;2023-05-07T00:25:05;14.10;98.00
4505;DHT22;2265;48.794;9.520;2023-05-07T00:27:32;14.10;98.00
4505;DHT22;2265;48.794;9.520;2023-05-07T00:30:00;14.30;98.00
4505;DHT22;2265;48.794;9.520;2023-05-07T00:32:27;14.40;98.00
4505;DHT22;2265;48.794;9.520;2023-05-07T00:34:54;14.30;98.00
4505;DHT22;2265;48.794;9.520;2023-05-07T00:37:22;14.20;98.00
4505;DHT22;2265;48.794;9.520;2023-05-07T00:39:49;14.10;98.00
4505;DHT22;2265;48.794;9.520;2023-05-07T00:42:16;14.20;98.00
4505;DHT22;2265;48.794;9.520;2023-05-07T00:44:43;14.30;98.00
4505;DHT22;2265;48.794;9.520;2023-05-07T00:47:11;14.30;98.00
4505;DHT22;2265;48.794;9.520;2023-05-07T00:49:41;14.30;98.00
4505;DHT22;2265;48.794;9.520;2023-05-07T00:52:13;14.30;98.00
4505;DHT22;2265;48.794;9.520;2023-05-07T00:54:42;14.20;98.00
4505;DHT22;2265;48.794;9.520;2023-05-07T00:57:10;14.40;98.00
4505;DHT22;2265;48.794;9.520;2023-05-07T00:59:38;14.40;98.00
4505;DHT22;2265;48.794;9.520;2023-05-07T01:02:06;14.20;98.00
4505;DHT22;2265;48.794;9.520;2023-05-07T01:04:34;14.10;98.00
4505;DHT22;2265;48.794;9.520;2023-05-07T01:07:02;14.10;98.00
4505;DHT22;2265;48.794;9.520;2023-05-07T01:09:29;14.10;98.00
4505;DHT22;2265;48.794;9.520;2023-05-07T01:11:59;14.00;98.00
4505;DHT22;2265;48.794;9.520;2023-05-07T01:14:26;14.00;98.00
4505;DHT22;2265;48.794;9.520;2023-05-07T01:16:54;14.00;98.00
4505;DHT22;2265;48.794;9.520;2023-05-07T01:19:21;14.10;98.00
4505;DHT22;2265;48.794;9.520;2023-05-07T01:21:49;14.10;98.00
4505;DHT22;2265;48.794;9.520;2023-05-07T01:24:18;14.20;98.00
4505;DHT22;2265;48.794;9.520;2023-05-07T01:26:48;14.10;98.00
4505;DHT22;2265;48.794;9.520;2023-05-07T01:29:15;14.00;98.00
4505;DHT22;2265;48.794;9.520;2023-05-07T01:31:44;13.90;98.00
4505;DHT22;2265;48.794;9.520;2023-05-07T01:34:13;13.90;98.00
4505;DHT22;2265;48.794;9.520;2023-05-07T01:36:43;13.80;98.00
4505;DHT22;2265;48.794;9.520;2023-05-07T01:39:11;13.80;98.00
4505;DHT22;2265;48.794;9.520;2023-05-07T01:41:40;13.90;98.00
4505;DHT22;2265;48.794;9.520;2023-05-07T01:44:08;13.80;98.00
4505;DHT22;2265;48.794;9.520;2023-05-07T01:46:38;13.70;98.00
4505;DHT22;2265;48.794;9.520;2023-05-07T01:49:05;13.70;98.00
4505;DHT22;2265;48.794;9.520;2023-05-07T01:51:32;13.70;98.00
4505;DHT22;2265;48.794;9.520;2023-05-07T01:54:00;13.80;98.00
4505;DHT22;2265;48.794;9.520;2023-05-07T01:56:27;13.70;98.00
4505;DHT22;2265;48.794;9.520;2023-05-07T01:58:56;13.60;98.00
4505;DHT22;2265;48.794;9.520;2023-05-07T02:01:23;13.50;98.00
4505;DHT22;2265;48.794;9.520;2023-05-07T02:03:50;13.50;98.00
4505;DHT22;2265;48.794;9.520;2023-05-07T02:06:17;13.40;98.00
4505;DHT22;2265;48.794;9.520;2023-05-07T02:08:45;13.50;98.00
4505;DHT22;2265;48.794;9.520;2023-05-07T02:11:12;13.50;98.00
4505;DHT22;2265;48.794;9.520;2023-05-07T02:13:39;13.40;98.00
4505;DHT22;2265;48.794;9.520;2023-05-07T02:16:08;13.40;98.00
4505;DHT22;2265;48.794;9.520;2023-05-07T02:18:36;13.40;98.00
4505;DHT22;2265;48.794;9.520;2023-05-07T02:21:03;13.30;98.00
4505;DHT22;2265;48.794;9.520;2023-05-07T02:23:30;13.30;98.00
4505;DHT22;2265;48.794;9.520;2023-05-07T02:25:57;13.40;98.00
4505;DHT22;2265;48.794;9.520;2023-05-07T02:28:25;13.20;98.00
4505;DHT22;2265;48.794;9.520;2023-05-07T02:30:52;13.30;98.00
4505;DHT22;2265;48.794;9.520;2023-05-07T02:33:25;13.20;98.00
4505;DHT22;2265;48.794;9.520;2023-05-07T02:35:52;13.20;98.00
4505;DHT22;2265;48.794;9.520;2023-05-07T02:38:19;13.20;98.00
4505;DHT22;2265;48.794;9.520;2023-05-07T02:40:46;13.10;98.00
4505;DHT22;2265;48.794;9.520;2023-05-07T02:43:13;13.10;98.00
4505;DHT22;2265;48.794;9.520;2023-05-07T02:45:40;12.90;98.00
4505;DHT22;2265;48.794;9.520;2023-05-07T02:48:08;12.90;98.00
4505;DHT22;2265;48.794;9.520;2023-05-07T02:50:37;12.90;98.00
4505;DHT22;2265;48.794;9.520;2023-05-07T02:53:04;12.80;98.00
4505;DHT22;2265;48.794;9.520;2023-05-07T02:55:32;12.80;98.00
4505;DHT22;2265;48.794;9.520;2023-05-07T02:57:59;12.70;98.00
4505;DHT22;2265;48.794;9.520;2023-05-07T03:00:26;12.60;98.00
4505;DHT22;2265;48.794;9.520;2023-05-07T03:02:54;12.60;98.00
4505;DHT22;2265;48.794;9.520;2023-05-07T03:05:22;12.70;98.00
4505;DHT22;2265;48.794;9.520;2023-05-07T03:07:50;12.70;98.00
4505;DHT22;2265;48.794;9.520;2023-05-07T03:10:18;12.70;98.00
4505;DHT22;2265;48.794;9.520;2023-05-07T03:12:45;12.70;98.00
4505;DHT22;2265;48.794;9.520;2023-05-07T03:15:12;12.70;98.00
4505;DHT22;2265;48.794;9.520;2023-05-07T03:17:39;12.60;98.00
4505;DHT22;2265;48.794;9.520;2023-05-07T03:20:07;12.50;98.00
4505;DHT22;2265;48.794;9.520;2023-05-07T03:22:35;12.50;98.00
4505;DHT22;2265;48.794;9.520;2023-05-07T03:25:05;12.40;98.00
4505;DHT22;2265;48.794;9.520;2023-05-07T03:27:32;12.40;98.00
4505;DHT22;2265;48.794;9.520;2023-05-07T03:29:59;12.60;98.00
4505;DHT22;2265;48.794;9.520;2023-05-07T03:32:29;12.40;98.00
4505;DHT22;2265;48.794;9.520;2023-05-07T03:34:57;12.40;98.00
4505;DHT22;2265;48.794;9.520;2023-05-07T03:37:24;12.40;98.00
4505;DHT22;2265;48.794;9.520;2023-05-07T03:39:51;12.30;98.00
4505;DHT22;2265;48.794;9.520;2023-05-07T03:42:20;12.40;98.00
4505;DHT22;2265;48.794;9.520;2023-05-07T03:44:47;12.40;98.00
4505;DHT22;2265;48.794;9.520;2023-05-07T03:47:14;12.50;98.00
4505;DHT22;2265;48.794;9.520;2023-05-07T03:49:41;12.60;98.00
4505;DHT22;2265;48.794;9.520;2023-05-07T03:52:08;12.70;98.00
4505;DHT22;2265;48.794;9.520;2023-05-07T03:54:36;12.70;98.00
4505;DHT22;2265;48.794;9.520;2023-05-07T03:57:03;12.60;98.00
4505;DHT22;2265;48.794;9.520;2023-05-07T03:59:32;12.40;98.00
4505;DHT22;2265;48.794;9.520;2023-05-07T04:01:59;12.30;98.00
4505;DHT22;2265;48.794;9.520;2023-05-07T04:04:26;12.30;98.00
4505;DHT22;2265;48.794;9.520;2023-05-07T04:06:53;12.10;98.00
4505;DHT22;2265;48.794;9.520;2023-05-07T04:09:21;12.10;98.00
4505;DHT22;2265;48.794;9.520;2023-05-07T04:11:51;12.20;98.00
4505;DHT22;2265;48.794;9.520;2023-05-07T04:14:18;12.30;98.00
4505;DHT22;2265;48.794;9.520;2023-05-07T04:16:47;12.30;98.00
4505;DHT22;2265;48.794;9.520;2023-05-07T04:19:14;12.30;98.00
4505;DHT22;2265;48.794;9.520;2023-05-07T04:21:41;12.30;98.00
4505;DHT22;2265;48.794;9.520;2023-05-07T04:24:08;12.40;98.00
4505;DHT22;2265;48.794;9.520;2023-05-07T04:26:35;12.30;98.00
4505;DHT22;2265;48.794;9.520;2023-05-07T04:29:02;12.30;98.00
4505;DHT22;2265;48.794;9.520;2023-05-07T04:31:30;12.30;98.00
4505;DHT22;2265;48.794;9.520;2023-05-07T04:33:58;12.40;98.00
4505;DHT22;2265;48.794;9.520;2023-05-07T04:36:26;12.40;98.00
4505;DHT22;2265;48.794;9.520;2023-05-07T04:38:54;12.40;98.00
4505;DHT22;2265;48.794;9.520;2023-05-07T04:41:36;12.50;98.00
4505;DHT22;2265;48.794;9.520;2023-05-07T04:44:03;12.50;98.00
4505;DHT22;2265;48.794;9.520;2023-05-07T04:46:33;12.40;98.00
4505;DHT22;2265;48.794;9.520;2023-05-07T04:49:02;12.40;98.00
4505;DHT22;2265;48.794;9.520;2023-05-07T04:51:29;12.40;98.00
4505;DHT22;2265;48.794;9.520;2023-05-07T04:53:58;12.40;98.00
4505;DHT22;2265;48.794;9.520;2023-05-07T04:56:27;12.50;98.00
4505;DHT22;2265;48.794;9.520;2023-05-07T04:58:55;12.70;98.00
4505;DHT22;2265;48.794;9.520;2023-05-07T05:01:22;12.70;98.00
4505;DHT22;2265;48.794;9.520;2023-05-07T05:03:49;12.70;98.00
4505;DHT22;2265;48.794;9.520;2023-05-07T05:06:18;12.70;98.00
4505;DHT22;2265;48.794;9.520;2023-05-07T05:08:45;12.60;98.00
4505;DHT22;2265;48.794;9.520;2023-05-07T05:11:13;12.50;98.00
4505;DHT22;2265;48.794;9.520;2023-05-07T05:13:40;12.40;98.00
4505;DHT22;2265;48.794;9.520;2023-05-07T05:16:07;12.40;98.00
4505;DHT22;2265;48.794;9.520;2023-05-07T05:18:35;12.50;98.00
4505;DHT22;2265;48.794;9.520;2023-05-07T05:21:02;12.50;98.00
4505;DHT22;2265;48.794;9.520;2023-05-07T05:23:30;12.60;98.00
4505;DHT22;2265;48.794;9.520;2023-05-07T05:25:58;12.70;98.00
4505;DHT22;2265;48.794;9.520;2023-05-07T05:28:25;12.80;98.00
4505;DHT22;2265;48.794;9.520;2023-05-07T05:30:53;12.90;98.00
4505;DHT22;2265;48.794;9.520;2023-05-07T05:33:21;12.90;98.00
4505;DHT22;2265;48.794;9.520;2023-05-07T05:35:49;13.10;98.00
4505;DHT22;2265;48.794;9.520;2023-05-07T05:38:17;13.10;98.00
4505;DHT22;2265;48.794;9.520;2023-05-07T05:40:46;13.20;98.00
4505;DHT22;2265;48.794;9.520;2023-05-07T05:43:13;13.20;98.00
4505;DHT22;2265;48.794;9.520;2023-05-07T05:45:40;13.20;98.00
4505;DHT22;2265;48.794;9.520;2023-05-07T05:48:07;13.20;98.00
4505;DHT22;2265;48.794;9.520;2023-05-07T05:50:35;13.30;98.00
4505;DHT22;2265;48.794;9.520;2023-05-07T05:53:02;13.40;98.00
4505;DHT22;2265;48.794;9.520;2023-05-07T05:55:29;13.60;98.00
4505;DHT22;2265;48.794;9.520;2023-05-07T05:57:59;13.80;98.00
4505;DHT22;2265;48.794;9.520;2023-05-07T06:00:27;14.00;98.00
4505;DHT22;2265;48.794;9.520;2023-05-07T06:02:54;14.10;98.00
4505;DHT22;2265;48.794;9.520;2023-05-07T06:05:21;14.10;98.00
4505;DHT22;2265;48.794;9.520;2023-05-07T06:07:48;14.40;98.00
4505;DHT22;2265;48.794;9.520;2023-05-07T06:10:15;14.40;98.00
4505;DHT22;2265;48.794;9.520;2023-05-07T06:12:42;14.50;98.00
4505;DHT22;2265;48.794;9.520;2023-05-07T06:15:12;14.50;98.00
4505;DHT22;2265;48.794;9.520;2023-05-07T06:17:39;14.60;98.00
4505;DHT22;2265;48.794;9.520;2023-05-07T06:20:07;14.90;98.00
4505;DHT22;2265;48.794;9.520;2023-05-07T06:22:35;15.00;98.00
4505;DHT22;2265;48.794;9.520;2023-05-07T06:25:02;15.00;98.00
4505;DHT22;2265;48.794;9.520;2023-05-07T06:27:29;15.20;98.00
4505;DHT22;2265;48.794;9.520;2023-05-07T06:29:56;15.20;98.00
4505;DHT22;2265;48.794;9.520;2023-05-07T06:32:25;15.30;98.00
4505;DHT22;2265;48.794;9.520;2023-05-07T06:34:52;15.40;98.00
4505;DHT22;2265;48.794;9.520;2023-05-07T06:37:19;15.40;98.00
4505;DHT22;2265;48.794;9.520;2023-05-07T06:39:46;15.50;98.00
4505;DHT22;2265;48.794;9.520;2023-05-07T06:42:13;15.60;98.00
4505;DHT22;2265;48.794;9.520;2023-05-07T06:44:40;15.50;98.00
4505;DHT22;2265;48.794;9.520;2023-05-07T06:47:07;15.40;98.00
4505;DHT22;2265;48.794;9.520;2023-05-07T06:49:36;15.60;98.00
4505;DHT22;2265;48.794;9.520;2023-05-07T06:52:05;15.60;98.00
4505;DHT22;2265;48.794;9.520;2023-05-07T06:54:32;15.60;98.00
4505;DHT22;2265;48.794;9.520;2023-05-07T06:57:00;15.60;98.00
4505;DHT22;2265;48.794;9.520;2023-05-07T06:59:27;15.70;98.00
4505;DHT22;2265;48.794;9.520;2023-05-07T07:01:54;15.70;98.00
4505;DHT22;2265;48.794;9.520;2023-05-07T07:04:21;15.80;98.00
4505;DHT22;2265;48.794;9.520;2023-05-07T07:06:52;16.00;98.00
4505;DHT22;2265;48.794;9.520;2023-05-07T07:09:19;16.20;98.00
4505;DHT22;2265;48.794;9.520;2023-05-07T07:11:46;16.40;98.00
4505;DHT22;2265;48.794;9.520;2023-05-07T07:14:16;16.60;98.00
4505;DHT22;2265;48.794;9.520;2023-05-07T07:16:43;16.90;98.00
4505;DHT22;2265;48.794;9.520;2023-05-07T07:19:10;17.00;98.00
4505;DHT22;2265;48.794;9.520;2023-05-07T07:21:37;17.10;98.00
4505;DHT22;2265;48.794;9.520;2023-05-07T07:24:06;17.40;98.00
4505;DHT22;2265;48.794;9.520;2023-05-07T07:26:33;17.50;98.00
4505;DHT22;2265;48.794;9.520;2023-05-07T07:29:00;17.80;98.00
4505;DHT22;2265;48.794;9.520;2023-05-07T07:31:27;18.00;98.00
4505;DHT22;2265;48.794;9.520;2023-05-07T07:33:54;18.20;98.00
4505;DHT22;2265;48.794;9.520;2023-05-07T07:36:21;18.40;98.00
4505;DHT22;2265;48.794;9.520;2023-05-07T07:38:48;18.70;98.00
4505;DHT22;2265;48.794;9.520;2023-05-07T07:41:20;18.90;98.00
4505;DHT22;2265;48.794;9.520;2023-05-07T07:43:47;19.00;98.00
4505;DHT22;2265;48.794;9.520;2023-05-07T07:46:14;19.20;98.00
4505;DHT22;2265;48.794;9.520;2023-05-07T07:48:41;19.40;98.00
4505;DHT22;2265;48.794;9.520;2023-05-07T07:51:08;19.50;98.00
4505;DHT22;2265;48.794;9.520;2023-05-07T07:53:35;19.70;98.00
4505;DHT22;2265;48.794;9.520;2023-05-07T07:56:03;19.90;98.00
4505;DHT22;2265;48.794;9.520;2023-05-07T07:58:31;20.10;98.00
4505;DHT22;2265;48.794;9.520;2023-05-07T08:00:59;20.20;98.00
4505;DHT22;2265;48.794;9.520;2023-05-07T08:03:30;20.30;98.00
4505;DHT22;2265;48.794;9.520;2023-05-07T08:05:58;20.50;98.00
4505;DHT22;2265;48.794;9.520;2023-05-07T08:08:25;20.70;98.00
4505;DHT22;2265;48.794;9.520;2023-05-07T08:10:52;20.80;98.00
4505;DHT22;2265;48.794;9.520;2023-05-07T08:13:21;21.00;98.00
4505;DHT22;2265;48.794;9.520;2023-05-07T08:15:50;21.20;98.00
4505;DHT22;2265;48.794;9.520;2023-05-07T08:18:17;21.30;98.00
4505;DHT22;2265;48.794;9.520;2023-05-07T08:20:44;21.40;98.00
4505;DHT22;2265;48.794;9.520;2023-05-07T08:23:11;21.50;98.00
4505;DHT22;2265;48.794;9.520;2023-05-07T08:25:38;21.60;98.00
4505;DHT22;2265;48.794;9.520;2023-05-07T08:28:05;21.80;98.00
4505;DHT22;2265;48.794;9.520;2023-05-07T08:30:32;21.90;98.00
4505;DHT22;2265;48.794;9.520;2023-05-07T08:33:01;22.00;98.00
4505;DHT22;2265;48.794;9.520;2023-05-07T08:35:28;22.20;98.00
4505;DHT22;2265;48.794;9.520;2023-05-07T08:37:55;22.30;98.00
4505;DHT22;2265;48.794;9.520;2023-05-07T08:40:25;22.50;98.00
4505;DHT22;2265;48.794;9.520;2023-05-07T08:42:53;22.50;98.00
4505;DHT22;2265;48.794;9.520;2023-05-07T08:45:23;22.60;98.00
4505;DHT22;2265;48.794;9.520;2023-05-07T08:47:52;22.70;98.00
4505;DHT22;2265;48.794;9.520;2023-05-07T08:50:23;22.90;98.00
4505;DHT22;2265;48.794;9.520;2023-05-07T08:52:50;23.00;98.00
4505;DHT22;2265;48.794;9.520;2023-05-07T08:55:18;23.10;98.00
4505;DHT22;2265;48.794;9.520;2023-05-07T08:57:46;23.20;98.00
4505;DHT22;2265;48.794;9.520;2023-05-07T09:00:18;23.30;98.00
4505;DHT22;2265;48.794;9.520;2023-05-07T09:02:45;23.40;98.00
4505;DHT22;2265;48.794;9.520;2023-05-07T09:05:12;23.50;98.00
4505;DHT22;2265;48.794;9.520;2023-05-07T09:07:40;23.60;98.00
4505;DHT22;2265;48.794;9.520;2023-05-07T09:10:09;23.60;98.00
4505;DHT22;2265;48.794;9.520;2023-05-07T09:12:36;23.60;98.00
4505;DHT22;2265;48.794;9.520;2023-05-07T09:15:06;23.40;98.00
4505;DHT22;2265;48.794;9.520;2023-05-07T09:17:34;23.30;98.00
4505;DHT22;2265;48.794;9.520;2023-05-07T09:20:06;23.20;98.00
4505;DHT22;2265;48.794;9.520;2023-05-07T09:22:33;23.30;98.00
4505;DHT22;2265;48.794;9.520;2023-05-07T09:25:02;23.50;98.00
4505;DHT22;2265;48.794;9.520;2023-05-07T09:27:30;23.70;98.00
4505;DHT22;2265;48.794;9.520;2023-05-07T09:29:58;23.90;98.00
4505;DHT22;2265;48.794;9.520;2023-05-07T09:32:25;24.10;98.00
4505;DHT22;2265;48.794;9.520;2023-05-07T09:34:52;24.20;96.40
4505;DHT22;2265;48.794;9.520;2023-05-07T09:37:20;24.40;98.00
4505;DHT22;2265;48.794;9.520;2023-05-07T09:39:48;24.50;98.00
4505;DHT22;2265;48.794;9.520;2023-05-07T09:42:23;24.70;98.00
4505;DHT22;2265;48.794;9.520;2023-05-07T09:44:52;24.80;97.50
4505;DHT22;2265;48.794;9.520;2023-05-07T09:47:19;25.00;93.60
4505;DHT22;2265;48.794;9.520;2023-05-07T09:49:48;25.00;94.60
4505;DHT22;2265;48.794;9.520;2023-05-07T09:52:18;25.00;95.60
4505;DHT22;2265;48.794;9.520;2023-05-07T09:54:47;25.20;94.60
4505;DHT22;2265;48.794;9.520;2023-05-07T09:57:17;25.30;93.00
4505;DHT22;2265;48.794;9.520;2023-05-07T09:59:49;25.50;94.20
4505;DHT22;2265;48.794;9.520;2023-05-07T10:02:19;25.70;92.90
4505;DHT22;2265;48.794;9.520;2023-05-07T10:04:48;25.80;89.90
4505;DHT22;2265;48.794;9.520;2023-05-07T10:07:16;25.90;92.50
4505;DHT22;2265;48.794;9.520;2023-05-07T10:09:44;25.90;92.40
4505;DHT22;2265;48.794;9.520;2023-05-07T10:12:12;25.90;91.70
4505;DHT22;2265;48.794;9.520;2023-05-07T10:14:40;25.70;89.90
4505;DHT22;2265;48.794;9.520;2023-05-07T10:17:08;25.80;91.10
4505;DHT22;2265;48.794;9.520;2023-05-07T10:19:38;25.90;91.20
4505;DHT22;2265;48.794;9.520;2023-05-07T10:22:06;25.80;91.20
4505;DHT22;2265;48.794;9.520;2023-05-07T10:24:37;25.70;91.40
4505;DHT22;2265;48.794;9.520;2023-05-07T10:27:07;25.40;91.80
4505;DHT22;2265;48.794;9.520;2023-05-07T10:29:42;25.30;93.40
4505;DHT22;2265;48.794;9.520;2023-05-07T10:35:03;25.40;92.40
4505;DHT22;2265;48.794;9.520;2023-05-07T10:37:32;25.60;89.80
4505;DHT22;2265;48.794;9.520;2023-05-07T10:39:59;25.60;90.40
4505;DHT22;2265;48.794;9.520;2023-05-07T10:42:26;25.60;91.60
4505;DHT22;2265;48.794;9.520;2023-05-07T10:44:55;25.80;95.00
4505;DHT22;2265;48.794;9.520;2023-05-07T10:47:25;26.10;90.50
4505;DHT22;2265;48.794;9.520;2023-05-07T10:53:24;26.40;88.00
4505;DHT22;2265;48.794;9.520;2023-05-07T10:56:24;26.10;88.20
4505;DHT22;2265;48.794;9.520;2023-05-07T10:58:52;25.90;88.10
4505;DHT22;2265;48.794;9.520;2023-05-07T11:01:52;25.60;87.70
4505;DHT22;2265;48.794;9.520;2023-05-07T11:04:20;26.00;90.00
4505;DHT22;2265;48.794;9.520;2023-05-07T11:07:29;26.50;90.60
4505;DHT22;2265;48.794;9.520;2023-05-07T11:09:57;26.90;86.10
4505;DHT22;2265;48.794;9.520;2023-05-07T11:12:54;27.20;84.10
4505;DHT22;2265;48.794;9.520;2023-05-07T11:15:38;27.30;86.50
4505;DHT22;2265;48.794;9.520;2023-05-07T11:18:09;27.20;86.80
4505;DHT22;2265;48.794;9.520;2023-05-07T11:20:47;27.00;87.70
4505;DHT22;2265;48.794;9.520;2023-05-07T11:26:23;27.40;84.80
4505;DHT22;2265;48.794;9.520;2023-05-07T11:28:51;27.70;85.60
4505;DHT22;2265;48.794;9.520;2023-05-07T11:31:24;27.90;83.30
4505;DHT22;2265;48.794;9.520;2023-05-07T11:33:53;27.90;81.90
4505;DHT22;2265;48.794;9.520;2023-05-07T11:36:22;28.00;83.10
4505;DHT22;2265;48.794;9.520;2023-05-07T11:38:50;28.00;82.70
4505;DHT22;2265;48.794;9.520;2023-05-07T11:41:17;27.70;80.80
4505;DHT22;2265;48.794;9.520;2023-05-07T11:43:58;27.40;83.50
4505;DHT22;2265;48.794;9.520;2023-05-07T11:46:27;27.10;81.50
4505;DHT22;2265;48.794;9.520;2023-05-07T11:48:56;27.00;82.20
4505;DHT22;2265;48.794;9.520;2023-05-07T11:51:24;26.90;85.80
4505;DHT22;2265;48.794;9.520;2023-05-07T11:53:55;27.40;88.00
4505;DHT22;2265;48.794;9.520;2023-05-07T11:56:23;28.00;83.30
4505;DHT22;2265;48.794;9.520;2023-05-07T11:58:50;28.40;81.80
4505;DHT22;2265;48.794;9.520;2023-05-07T12:01:17;28.80;82.30
4505;DHT22;2265;48.794;9.520;2023-05-07T12:03:45;28.90;78.60
4505;DHT22;2265;48.794;9.520;2023-05-07T12:06:15;29.00;80.80
4505;DHT22;2265;48.794;9.520;2023-05-07T12:08:44;28.90;79.40
4505;DHT22;2265;48.794;9.520;2023-05-07T12:11:15;28.80;78.60
4505;DHT22;2265;48.794;9.520;2023-05-07T12:13:44;28.60;76.50
4505;DHT22;2265;48.794;9.520;2023-05-07T12:16:11;28.40;77.40
4505;DHT22;2265;48.794;9.520;2023-05-07T12:18:39;28.20;79.00
4505;DHT22;2265;48.794;9.520;2023-05-07T12:21:07;28.00;80.70
4505;DHT22;2265;48.794;9.520;2023-05-07T12:23:36;27.60;78.50
4505;DHT22;2265;48.794;9.520;2023-05-07T12:26:03;27.20;79.90
4505;DHT22;2265;48.794;9.520;2023-05-07T12:28:36;26.70;80.10
4505;DHT22;2265;48.794;9.520;2023-05-07T12:31:05;26.40;81.40
4505;DHT22;2265;48.794;9.520;2023-05-07T12:33:32;26.10;81.90
4505;DHT22;2265;48.794;9.520;2023-05-07T12:36:04;26.00;82.20
4505;DHT22;2265;48.794;9.520;2023-05-07T12:38:37;26.00;82.40
4505;DHT22;2265;48.794;9.520;2023-05-07T12:41:07;25.80;82.70
4505;DHT22;2265;48.794;9.520;2023-05-07T12:43:34;25.70;83.00
4505;DHT22;2265;48.794;9.520;2023-05-07T12:46:05;25.50;84.00
4505;DHT22;2265;48.794;9.520;2023-05-07T12:48:32;25.50;84.20
4505;DHT22;2265;48.794;9.520;2023-05-07T12:51:00;25.30;84.60
4505;DHT22;2265;48.794;9.520;2023-05-07T12:53:29;25.30;86.40
4505;DHT22;2265;48.794;9.520;2023-05-07T12:55:59;25.10;85.60
4505;DHT22;2265;48.794;9.520;2023-05-07T12:58:27;24.90;87.70
4505;DHT22;2265;48.794;9.520;2023-05-07T13:00:56;24.70;88.30
4505;DHT22;2265;48.794;9.520;2023-05-07T13:03:29;24.60;87.70
4505;DHT22;2265;48.794;9.520;2023-05-07T13:06:00;24.50;89.40
4505;DHT22;2265;48.794;9.520;2023-05-07T13:08:29;24.40;89.40
4505;DHT22;2265;48.794;9.520;2023-05-07T13:10:59;24.30;89.50
4505;DHT22;2265;48.794;9.520;2023-05-07T13:13:28;24.20;87.90
4505;DHT22;2265;48.794;9.520;2023-05-07T13:15:56;24.10;90.80
4505;DHT22;2265;48.794;9.520;2023-05-07T13:18:24;23.90;91.10
4505;DHT22;2265;48.794;9.520;2023-05-07T13:20:51;23.80;91.90
4505;DHT22;2265;48.794;9.520;2023-05-07T13:23:18;23.60;91.70
4505;DHT22;2265;48.794;9.520;2023-05-07T13:25:45;23.40;91.90
4505;DHT22;2265;48.794;9.520;2023-05-07T13:28:14;23.30;92.80
4505;DHT22;2265;48.794;9.520;2023-05-07T13:30:41;23.10;93.50
4505;DHT22;2265;48.794;9.520;2023-05-07T13:33:09;23.00;94.20
4505;DHT22;2265;48.794;9.520;2023-05-07T13:35:36;22.90;95.30
4505;DHT22;2265;48.794;9.520;2023-05-07T13:38:04;22.80;96.50
4505;DHT22;2265;48.794;9.520;2023-05-07T13:40:31;22.70;97.00
4505;DHT22;2265;48.794;9.520;2023-05-07T13:42:59;22.80;98.00
4505;DHT22;2265;48.794;9.520;2023-05-07T13:45:29;22.80;97.30
4505;DHT22;2265;48.794;9.520;2023-05-07T13:47:56;22.50;98.00
4505;DHT22;2265;48.794;9.520;2023-05-07T13:50:24;22.00;98.00
4505;DHT22;2265;48.794;9.520;2023-05-07T13:52:52;21.80;98.00
4505;DHT22;2265;48.794;9.520;2023-05-07T13:55:20;21.70;98.00
4505;DHT22;2265;48.794;9.520;2023-05-07T13:57:54;21.70;98.00
4505;DHT22;2265;48.794;9.520;2023-05-07T14:00:22;21.60;98.00
4505;DHT22;2265;48.794;9.520;2023-05-07T14:02:50;21.50;98.00
4505;DHT22;2265;48.794;9.520;2023-05-07T14:05:17;21.20;98.00
4505;DHT22;2265;48.794;9.520;2023-05-07T14:07:45;21.00;98.00
4505;DHT22;2265;48.794;9.520;2023-05-07T14:10:12;20.90;98.00
4505;DHT22;2265;48.794;9.520;2023-05-07T14:12:39;20.90;98.00
4505;DHT22;2265;48.794;9.520;2023-05-07T14:15:07;20.90;98.00
4505;DHT22;2265;48.794;9.520;2023-05-07T14:17:34;20.90;98.00
4505;DHT22;2265;48.794;9.520;2023-05-07T14:20:04;21.00;98.00
4505;DHT22;2265;48.794;9.520;2023-05-07T14:22:31;21.00;98.00
4505;DHT22;2265;48.794;9.520;2023-05-07T14:24:59;21.10;98.00
4505;DHT22;2265;48.794;9.520;2023-05-07T14:27:26;21.20;98.00
4505;DHT22;2265;48.794;9.520;2023-05-07T14:29:53;21.30;98.00
4505;DHT22;2265;48.794;9.520;2023-05-07T14:32:20;21.10;98.00
4505;DHT22;2265;48.794;9.520;2023-05-07T14:34:47;21.00;98.00
4505;DHT22;2265;48.794;9.520;2023-05-07T14:37:16;20.90;98.00
4505;DHT22;2265;48.794;9.520;2023-05-07T14:39:46;20.80;98.00
4505;DHT22;2265;48.794;9.520;2023-05-07T14:42:13;20.40;98.00
4505;DHT22;2265;48.794;9.520;2023-05-07T14:44:40;20.00;98.00
4505;DHT22;2265;48.794;9.520;2023-05-07T14:47:08;19.70;98.00
4505;DHT22;2265;48.794;9.520;2023-05-07T14:49:35;19.40;98.00
4505;DHT22;2265;48.794;9.520;2023-05-07T14:52:02;19.40;98.00
4505;DHT22;2265;48.794;9.520;2023-05-07T14:54:35;19.50;98.00
4505;DHT22;2265;48.794;9.520;2023-05-07T14:57:02;19.40;98.00
4505;DHT22;2265;48.794;9.520;2023-05-07T14:59:29;19.30;98.00
4505;DHT22;2265;48.794;9.520;2023-05-07T15:01:56;19.20;98.00
4505;DHT22;2265;48.794;9.520;2023-05-07T15:04:25;19.30;98.00
4505;DHT22;2265;48.794;9.520;2023-05-07T15:06:52;19.30;98.00
4505;DHT22;2265;48.794;9.520;2023-05-07T15:09:19;19.40;98.00
4505;DHT22;2265;48.794;9.520;2023-05-07T15:11:48;19.40;98.00
4505;DHT22;2265;48.794;9.520;2023-05-07T15:14:15;19.20;98.00
4505;DHT22;2265;48.794;9.520;2023-05-07T15:16:42;19.30;98.00
4505;DHT22;2265;48.794;9.520;2023-05-07T15:19:11;19.40;98.00
4505;DHT22;2265;48.794;9.520;2023-05-07T15:21:40;19.30;98.00
4505;DHT22;2265;48.794;9.520;2023-05-07T15:24:07;19.30;98.00
4505;DHT22;2265;48.794;9.520;2023-05-07T15:26:34;19.40;98.00
4505;DHT22;2265;48.794;9.520;2023-05-07T15:29:03;19.40;98.00
4505;DHT22;2265;48.794;9.520;2023-05-07T15:31:35;19.40;98.00
4505;DHT22;2265;48.794;9.520;2023-05-07T15:34:03;19.30;98.00
4505;DHT22;2265;48.794;9.520;2023-05-07T15:36:30;19.40;98.00
4505;DHT22;2265;48.794;9.520;2023-05-07T15:38:58;19.40;98.00
4505;DHT22;2265;48.794;9.520;2023-05-07T15:41:25;19.30;98.00
4505;DHT22;2265;48.794;9.520;2023-05-07T15:43:52;19.00;98.00
4505;DHT22;2265;48.794;9.520;2023-05-07T15:46:22;18.80;98.00
4505;DHT22;2265;48.794;9.520;2023-05-07T15:48:50;18.60;98.00
4505;DHT22;2265;48.794;9.520;2023-05-07T15:51:17;18.50;98.00
4505;DHT22;2265;48.794;9.520;2023-05-07T15:53:45;18.30;98.00
4505;DHT22;2265;48.794;9.520;2023-05-07T15:56:13;18.20;98.00
4505;DHT22;2265;48.794;9.520;2023-05-07T15:58:40;18.40;98.00
4505;DHT22;2265;48.794;9.520;2023-05-07T16:01:07;18.50;98.00
4505;DHT22;2265;48.794;9.520;2023-05-07T16:03:36;18.50;98.00
4505;DHT22;2265;48.794;9.520;2023-05-07T16:06:04;18.50;98.00
4505;DHT22;2265;48.794;9.520;2023-05-07T16:08:32;18.50;98.00
4505;DHT22;2265;48.794;9.520;2023-05-07T16:10:59;18.50;98.00
4505;DHT22;2265;48.794;9.520;2023-05-07T16:13:26;18.40;98.00
4505;DHT22;2265;48.794;9.520;2023-05-07T16:15:55;18.20;98.00
4505;DHT22;2265;48.794;9.520;2023-05-07T16:18:24;18.20;98.00